Time;durP1;ratioP1;P1;durP2;ratioP2;P2;SDS_P1;SDS_P2;PMS_P1;PMS_P2;Temp;Humidity;BMP_temperature;BMP_pressure;BME280_temperature;BME280_humidity;BME280_pressure;Samples;Min_cycle;Max_cycle;Signal;HPM_P1;HPM_P2
2023/02/02 00:00:51;;;;;;;9.60;3.67;;;;;;;2.25;100.00;96998.00;5042743;28;20244;-66
2023/02/02 00:03:20;;;;;;;5.67;4.27;;;;;;;2.30;100.00;96992.38;5065942;28;20209;-64
2023/02/02 00:05:49;;;;;;;7.90;3.17;;;;;;;2.24;100.00;97006.81;5018746;28;20255;-65
2023/02/02 00:08:17;;;;;;;9.70;3.60;;;;;;;2.22;100.00;96997.44;5061780;28;20210;-63
2023/02/02 00:10:44;;;;;;;7.83;3.80;;;;;;;2.31;100.00;97002.69;5058767;28;20214;-64
2023/02/02 00:13:12;;;;;;;6.20;3.37;;;;;;;2.28;100.00;97012.59;5053488;28;20405;-64
2023/02/02 00:15:40;;;;;;;12.13;3.57;;;;;;;2.36;100.00;97006.69;5045681;28;20214;-63
2023/02/02 00:18:07;;;;;;;9.40;3.53;;;;;;;2.36;100.00;97014.53;5061699;28;20270;-64
2023/02/02 00:20:36;;;;;;;7.70;3.67;;;;;;;2.39;100.00;97009.84;5062564;28;20244;-65
2023/02/02 00:23:04;;;;;;;8.20;3.27;;;;;;;2.34;100.00;97019.91;5019554;28;20222;-64
2023/02/02 00:25:32;;;;;;;5.63;3.63;;;;;;;2.36;100.00;97020.59;5067053;28;20446;-65
2023/02/02 00:27:59;;;;;;;5.40;2.70;;;;;;;2.25;100.00;97042.44;5049225;28;20441;-65
2023/02/02 00:30:27;;;;;;;7.30;3.73;;;;;;;2.35;100.00;97042.47;5064017;28;20423;-65
2023/02/02 00:32:54;;;;;;;9.93;3.80;;;;;;;2.30;100.00;97035.03;5044209;28;20213;-65
2023/02/02 00:35:22;;;;;;;6.27;4.00;;;;;;;2.27;100.00;97040.53;5065636;28;20199;-62
2023/02/02 00:37:51;;;;;;;8.80;3.00;;;;;;;2.24;100.00;97046.03;5017789;28;20260;-65
2023/02/02 00:40:19;;;;;;;3.53;2.90;;;;;;;2.11;100.00;97045.47;5067523;28;20241;-64
2023/02/02 00:42:49;;;;;;;2.83;2.63;;;;;;;1.81;100.00;97060.22;5047317;28;20202;-64
2023/02/02 00:45:16;;;;;;;1.70;1.70;;;;;;;1.43;100.00;97065.13;5065888;28;20221;-64
2023/02/02 00:47:45;;;;;;;1.67;1.20;;;;;;;1.05;100.00;97084.78;5049091;28;20202;-66
2023/02/02 00:50:14;;;;;;;1.70;1.17;;;;;;;0.76;100.00;97083.63;5067791;28;20226;-64
2023/02/02 00:52:42;;;;;;;1.30;1.20;;;;;;;0.55;100.00;97088.78;5066537;28;20198;-64
2023/02/02 00:55:12;;;;;;;0.90;0.90;;;;;;;0.49;100.00;97102.31;5019101;28;20214;-64
2023/02/02 00:57:43;;;;;;;0.90;0.90;;;;;;;0.23;100.00;97100.00;5069090;28;20559;-65
2023/02/02 01:00:12;;;;;;;0.80;0.80;;;;;;;0.02;100.00;97103.34;5041980;28;20223;-64
2023/02/02 01:02:40;;;;;;;0.90;0.90;;;;;;;-0.10;100.00;97106.88;5047381;28;20207;-65
2023/02/02 01:05:08;;;;;;;0.70;0.70;;;;;;;-0.35;100.00;97098.38;5063258;28;20724;-64
2023/02/02 01:07:36;;;;;;;0.70;0.70;;;;;;;-0.53;100.00;97117.03;5060520;28;20233;-66
2023/02/02 01:10:03;;;;;;;0.90;0.90;;;;;;;-0.61;100.00;97135.00;5019507;28;20230;-65
2023/02/02 01:12:32;;;;;;;0.50;0.50;;;;;;;-0.61;100.00;97128.03;5061856;28;20207;-65
2023/02/02 01:15:00;;;;;;;0.60;0.60;;;;;;;-0.68;100.00;97128.63;5052362;28;20190;-66
2023/02/02 01:17:29;;;;;;;0.70;0.70;;;;;;;-0.84;100.00;97118.53;5041916;28;20826;-66
2023/02/02 01:19:56;;;;;;;0.70;0.70;;;;;;;-0.79;100.00;97139.81;5075614;28;20213;-67
2023/02/02 01:22:24;;;;;;;1.00;1.00;;;;;;;-0.84;100.00;97147.13;5057369;28;20206;-65
2023/02/02 01:24:51;;;;;;;1.00;1.00;;;;;;;-0.84;100.00;97150.56;5024463;28;20226;-65
2023/02/02 01:27:19;;;;;;;0.70;0.70;;;;;;;-0.80;100.00;97165.00;5067683;28;20226;-64
2023/02/02 01:29:48;;;;;;;0.80;0.80;;;;;;;-0.72;100.00;97167.03;5066792;28;20227;-66
2023/02/02 01:32:15;;;;;;;0.80;0.80;;;;;;;-0.74;100.00;97164.56;5043592;28;20239;-64
2023/02/02 01:34:43;;;;;;;0.80;0.80;;;;;;;-0.71;100.00;97158.28;5045394;28;20198;-65
2023/02/02 01:37:10;;;;;;;0.87;0.87;;;;;;;-0.64;100.00;97154.28;5061164;28;20213;-64
2023/02/02 01:39:38;;;;;;;0.73;0.73;;;;;;;-0.62;100.00;97157.59;5017150;28;20759;-65
2023/02/02 01:42:12;;;;;;;0.73;0.73;;;;;;;-0.61;100.00;97148.84;5063426;28;20205;-64
2023/02/02 01:45:14;;;;;;;0.70;0.70;;;;;;;-0.60;100.00;97155.69;5067042;28;20448;-65
2023/02/02 01:47:47;;;;;;;1.00;1.00;;;;;;;-0.60;100.00;97150.50;4998333;28;20202;-64
2023/02/02 01:50:18;;;;;;;0.70;0.70;;;;;;;-0.61;100.00;97151.44;5049305;28;20244;-63
2023/02/02 01:52:48;;;;;;;0.80;0.80;;;;;;;-0.64;100.00;97153.47;5056611;28;20199;-65
2023/02/02 01:55:19;;;;;;;0.70;0.70;;;;;;;-0.63;100.00;97150.72;5019638;28;20546;-64
2023/02/02 01:57:51;;;;;;;1.27;1.20;;;;;;;-0.64;100.00;97154.28;5069596;28;20205;-65
2023/02/02 02:00:24;;;;;;;0.70;0.70;;;;;;;-0.68;100.00;97158.06;5063610;28;20233;-64
2023/02/02 02:02:53;;;;;;;0.70;0.70;;;;;;;-0.57;100.00;97166.81;5043957;28;20216;-65
2023/02/02 02:05:26;;;;;;;0.70;0.70;;;;;;;-0.67;100.00;97157.09;5044067;28;20226;-64
2023/02/02 02:07:57;;;;;;;0.83;0.83;;;;;;;-0.70;100.00;97159.94;5063503;28;20693;-64
2023/02/02 02:10:24;;;;;;;1.00;1.00;;;;;;;-0.74;100.00;97161.13;5025030;28;21520;-63
2023/02/02 02:12:52;;;;;;;0.70;0.70;;;;;;;-0.79;100.00;97161.44;5063204;28;20210;-64
2023/02/02 02:18:15;;;;;;;0.60;0.60;;;;;;;-0.76;100.00;97176.00;5066655;28;20206;-64
2023/02/02 02:27:58;;;;;;;0.73;0.73;;;;;;;-0.84;100.00;97194.78;5016746;28;20518;-64
2023/02/02 02:30:39;;;;;;;0.77;0.77;;;;;;;-0.81;100.00;97183.31;5064033;28;20264;-65
2023/02/02 02:33:12;;;;;;;0.90;0.70;;;;;;;-0.87;100.00;97195.00;5059681;28;21065;-62
2023/02/02 02:35:42;;;;;;;0.50;0.50;;;;;;;-0.90;100.00;97187.41;5028402;28;21017;-65
2023/02/02 02:38:15;;;;;;;0.60;0.60;;;;;;;-0.89;100.00;97191.69;5060592;28;20206;-64
2023/02/02 02:40:47;;;;;;;0.90;0.90;;;;;;;-0.91;100.00;97181.41;5053919;28;20513;-66
2023/02/02 02:43:17;;;;;;;0.63;0.63;;;;;;;-0.92;100.00;97184.94;5016970;28;20214;-64
2023/02/02 02:45:45;;;;;;;0.50;0.50;;;;;;;-0.91;100.00;97183.16;5064862;28;20230;-66
2023/02/02 02:48:14;;;;;;;0.73;0.70;;;;;;;-0.90;100.00;97190.03;5058084;28;20214;-64
2023/02/02 02:50:41;;;;;;;0.80;0.80;;;;;;;-0.95;100.00;97194.75;5043462;28;20424;-63
2023/02/02 02:53:12;;;;;;;0.80;0.77;;;;;;;-1.03;100.00;97182.28;5042062;28;20678;-64
2023/02/02 02:55:46;;;;;;;0.60;0.60;;;;;;;-1.02;100.00;97173.53;5063525;28;20368;-65
2023/02/02 02:58:17;;;;;;;0.60;0.60;;;;;;;-0.99;100.00;97170.72;5013433;28;20210;-65
2023/02/02 03:00:49;;;;;;;0.77;0.70;;;;;;;-1.00;100.00;97169.03;5063599;28;20219;-66
2023/02/02 03:03:26;;;;;;;0.60;0.60;;;;;;;-0.99;100.00;97175.09;5055887;28;20238;-64
2023/02/02 03:05:58;;;;;;;0.80;0.80;;;;;;;-0.95;100.00;97177.34;5046845;28;20321;-64
2023/02/02 03:08:29;;;;;;;0.93;0.93;;;;;;;-0.93;100.00;97185.91;5042798;28;20202;-63
2023/02/02 03:10:58;;;;;;;1.20;1.20;;;;;;;-0.91;100.00;97194.41;5067068;28;20229;-63
2023/02/02 03:13:26;;;;;;;0.83;0.83;;;;;;;-0.86;100.00;97193.25;5026766;28;20209;-65
2023/02/02 03:15:54;;;;;;;0.83;0.83;;;;;;;-0.90;100.00;97198.69;5076036;28;20194;-64
2023/02/02 03:18:26;;;;;;;0.80;0.80;;;;;;;-0.93;100.00;97201.50;5063060;28;20206;-64
2023/02/02 03:20:53;;;;;;;0.97;0.97;;;;;;;-0.89;100.00;97208.13;5070687;28;20229;-64
2023/02/02 03:23:21;;;;;;;1.27;1.27;;;;;;;-0.93;100.00;97204.09;5029742;28;20202;-65
2023/02/02 03:25:49;;;;;;;1.00;1.00;;;;;;;-0.84;100.00;97199.16;5068347;28;20233;-65
2023/02/02 03:28:18;;;;;;;1.23;1.10;;;;;;;-0.85;100.00;97206.13;5022540;28;20591;-63
2023/02/02 03:30:46;;;;;;;1.10;1.10;;;;;;;-0.84;100.00;97215.59;5070644;28;20229;-65
2023/02/02 03:33:14;;;;;;;0.60;0.60;;;;;;;-0.76;100.00;97213.28;5064326;28;20543;-62
2023/02/02 03:35:43;;;;;;;0.70;0.70;;;;;;;-0.65;100.00;97214.25;5067147;28;20613;-65
2023/02/02 03:38:11;;;;;;;0.87;0.87;;;;;;;-0.69;100.00;97213.66;5038485;28;20214;-65
2023/02/02 03:40:39;;;;;;;1.13;1.13;;;;;;;-0.65;100.00;97222.06;5057124;28;20234;-65
2023/02/02 03:43:07;;;;;;;0.80;0.80;;;;;;;-0.64;100.00;97213.31;5021230;28;20513;-63
2023/02/02 03:45:36;;;;;;;0.90;0.90;;;;;;;-0.60;100.00;97236.38;5063608;28;20454;-62
2023/02/02 03:48:04;;;;;;;0.83;0.83;;;;;;;-0.56;100.00;97230.97;5067556;28;20214;-66
2023/02/02 03:50:32;;;;;;;0.70;0.70;;;;;;;-0.76;100.00;97225.44;5064021;28;20250;-64
2023/02/02 03:53:01;;;;;;;0.80;0.80;;;;;;;-0.65;100.00;97225.50;5045531;28;20210;-65
2023/02/02 03:55:28;;;;;;;0.73;0.73;;;;;;;-0.77;100.00;97226.38;5044729;28;20443;-65
2023/02/02 03:57:57;;;;;;;1.50;1.50;;;;;;;-0.77;100.00;97223.78;5024000;28;20225;-66
2023/02/02 04:00:25;;;;;;;1.00;1.00;;;;;;;-0.79;100.00;97223.06;5066405;28;20229;-65
2023/02/02 04:02:53;;;;;;;0.80;0.80;;;;;;;-0.83;100.00;97235.47;5076008;28;20198;-66
2023/02/02 04:05:21;;;;;;;0.57;0.57;;;;;;;-0.84;100.00;97231.19;5065980;28;20866;-64
2023/02/02 04:07:49;;;;;;;0.70;0.70;;;;;;;-0.76;100.00;97233.25;5047422;28;20391;-66
2023/02/02 04:10:18;;;;;;;0.80;0.80;;;;;;;-0.68;100.00;97235.31;5023914;28;20582;-65
2023/02/02 04:12:46;;;;;;;0.83;0.83;;;;;;;-0.80;100.00;97237.03;5044030;28;20213;-66
2023/02/02 04:15:13;;;;;;;0.70;0.70;;;;;;;-0.81;100.00;97233.56;5021566;28;20201;-63
2023/02/02 04:17:41;;;;;;;0.60;0.60;;;;;;;-0.80;100.00;97240.44;5068858;28;20197;-67
2023/02/02 04:20:10;;;;;;;0.80;0.80;;;;;;;-0.75;100.00;97232.31;5063405;28;20602;-63
2023/02/02 04:22:39;;;;;;;1.73;1.23;;;;;;;-0.77;100.00;97245.41;5064910;28;20310;-66
2023/02/02 04:25:07;;;;;;;0.60;0.60;;;;;;;-0.76;100.00;97239.31;5033220;28;20222;-64
2023/02/02 04:27:37;;;;;;;0.90;0.90;;;;;;;-0.75;100.00;97237.50;5050443;28;20275;-65
2023/02/02 04:30:05;;;;;;;0.93;0.90;;;;;;;-0.75;100.00;97251.38;5030757;28;20230;-64
2023/02/02 04:32:33;;;;;;;0.80;0.80;;;;;;;-0.73;100.00;97240.84;5066397;28;20291;-61
2023/02/02 04:35:01;;;;;;;1.23;0.90;;;;;;;-0.70;100.00;97245.00;5069662;28;20240;-63
2023/02/02 04:37:30;;;;;;;0.80;0.80;;;;;;;-0.65;100.00;97251.50;5059694;28;20507;-61
2023/02/02 04:39:58;;;;;;;0.70;0.70;;;;;;;-0.61;100.00;97249.53;5026058;28;20709;-64
2023/02/02 04:42:26;;;;;;;0.70;0.70;;;;;;;-0.71;100.00;97248.53;5052398;28;20202;-66
2023/02/02 04:44:55;;;;;;;1.13;1.13;;;;;;;-0.79;100.00;97255.09;5043575;28;20203;-64
2023/02/02 04:47:23;;;;;;;0.80;0.80;;;;;;;-0.83;100.00;97243.25;5022904;28;20244;-63
2023/02/02 04:49:50;;;;;;;1.40;1.40;;;;;;;-0.77;100.00;97255.00;5061917;28;20308;-63
2023/02/02 04:52:18;;;;;;;1.10;1.10;;;;;;;-0.80;100.00;97250.84;5067283;28;20513;-67
2023/02/02 04:54:46;;;;;;;1.20;1.20;;;;;;;-0.86;100.00;97250.47;5053497;28;20741;-66
2023/02/02 04:57:13;;;;;;;1.50;1.50;;;;;;;-0.82;100.00;97255.34;5049530;28;20742;-67
2023/02/02 04:59:41;;;;;;;1.43;1.43;;;;;;;-0.88;100.00;97259.22;5075791;28;20855;-68
2023/02/02 05:02:10;;;;;;;1.90;1.80;;;;;;;-0.90;100.00;97258.50;5023120;28;20215;-67
2023/02/02 05:04:38;;;;;;;1.63;1.53;;;;;;;-0.80;100.00;97257.84;5068485;28;20229;-67
2023/02/02 05:07:05;;;;;;;1.60;1.60;;;;;;;-0.84;100.00;97261.59;5067898;28;20700;-68
2023/02/02 05:09:33;;;;;;;1.90;1.80;;;;;;;-0.84;100.00;97274.63;5074994;28;20300;-67
2023/02/02 05:12:01;;;;;;;1.20;1.20;;;;;;;-0.77;100.00;97276.63;5052865;28;20769;-66
2023/02/02 05:14:28;;;;;;;1.73;1.63;;;;;;;-0.75;100.00;97280.00;5049461;28;20202;-66
2023/02/02 05:16:56;;;;;;;1.60;1.50;;;;;;;-0.86;100.00;97268.69;5040961;28;20260;-66
2023/02/02 05:19:25;;;;;;;2.00;1.90;;;;;;;-0.82;100.00;97277.94;5057227;28;20626;-67
2023/02/02 05:21:53;;;;;;;2.23;2.13;;;;;;;-0.78;100.00;97282.78;5065825;28;20213;-65
2023/02/02 05:24:21;;;;;;;2.23;2.13;;;;;;;-0.71;100.00;97287.56;5073593;28;20862;-67
2023/02/02 05:26:48;;;;;;;3.10;2.70;;;;;;;-0.70;100.00;97282.25;5054116;28;20222;-66
2023/02/02 05:29:16;;;;;;;2.43;2.23;;;;;;;-0.76;100.00;97280.94;5047511;28;20207;-67
2023/02/02 05:31:44;;;;;;;2.73;2.63;;;;;;;-0.81;100.00;97287.41;5065096;28;20197;-67
2023/02/02 05:34:12;;;;;;;2.93;2.63;;;;;;;-0.81;100.00;97282.19;5023702;28;20308;-67
2023/02/02 05:36:41;;;;;;;2.07;1.90;;;;;;;-0.79;100.00;97288.94;5070365;28;20195;-66
2023/02/02 05:39:09;;;;;;;1.30;1.30;;;;;;;-0.83;100.00;97291.88;5064400;28;20209;-67
2023/02/02 05:41:37;;;;;;;1.30;1.30;;;;;;;-0.78;100.00;97292.38;5050337;28;20224;-68
2023/02/02 05:44:05;;;;;;;1.00;1.00;;;;;;;-0.87;100.00;97293.84;5049206;28;20194;-66
2023/02/02 05:46:32;;;;;;;1.97;1.87;;;;;;;-0.87;100.00;97299.06;5038847;28;20601;-67
2023/02/02 05:49:03;;;;;;;0.80;0.80;;;;;;;-0.81;100.00;97301.22;5035519;28;20194;-67
2023/02/02 05:51:33;;;;;;;0.90;0.90;;;;;;;-0.78;100.00;97294.97;5048442;28;20234;-68
2023/02/02 05:54:02;;;;;;;1.00;1.00;;;;;;;-0.71;100.00;97295.38;5071358;28;20392;-68
2023/02/02 05:56:30;;;;;;;0.80;0.80;;;;;;;-0.80;100.00;97300.28;5075296;28;20217;-67
2023/02/02 05:58:58;;;;;;;1.13;1.13;;;;;;;-0.81;100.00;97298.63;5065954;28;20418;-67
2023/02/02 06:01:26;;;;;;;1.53;1.10;;;;;;;-0.81;100.00;97308.22;5046862;28;20241;-68
2023/02/02 06:03:54;;;;;;;1.10;1.10;;;;;;;-0.81;100.00;97296.03;5023274;28;20218;-66
2023/02/02 06:06:22;;;;;;;0.80;0.80;;;;;;;-0.81;100.00;97297.81;5051875;28;20220;-67
2023/02/02 06:08:49;;;;;;;1.50;1.07;;;;;;;-0.73;100.00;97301.53;5071331;28;20227;-65
2023/02/02 06:11:19;;;;;;;1.50;1.40;;;;;;;-0.63;100.00;97299.06;5065676;28;20990;-68
2023/02/02 06:13:47;;;;;;;1.20;1.20;;;;;;;-0.60;100.00;97305.84;5072480;28;20285;-66
2023/02/02 06:16:14;;;;;;;1.10;1.10;;;;;;;-0.57;100.00;97299.56;5041557;28;20211;-66
2023/02/02 06:18:43;;;;;;;1.20;1.20;;;;;;;-0.55;100.00;97305.53;5023751;28;20202;-66
2023/02/02 06:21:11;;;;;;;3.10;2.90;;;;;;;-0.68;100.00;97306.38;5063933;28;20241;-66
2023/02/02 06:23:44;;;;;;;3.80;3.60;;;;;;;-0.84;100.00;97305.84;5056169;28;20202;-66
2023/02/02 06:26:12;;;;;;;2.90;2.80;;;;;;;-0.88;100.00;97307.81;5074861;28;20617;-68
2023/02/02 06:28:40;;;;;;;4.17;3.87;;;;;;;-0.86;100.00;97310.31;5074782;28;20217;-66
2023/02/02 06:31:09;;;;;;;5.13;4.73;;;;;;;-0.95;100.00;97299.59;5044111;28;20222;-65
2023/02/02 06:33:37;;;;;;;4.90;4.57;;;;;;;-0.81;100.00;97310.81;5052892;28;20217;-66
2023/02/02 06:36:07;;;;;;;7.50;5.67;;;;;;;-0.84;100.00;97314.44;5047260;28;20220;-67
2023/02/02 06:38:34;;;;;;;27.30;6.27;;;;;;;-0.86;100.00;97303.31;5061508;28;20236;-66
2023/02/02 06:41:02;;;;;;;6.27;5.77;;;;;;;-0.88;100.00;97313.84;5057119;28;20234;-67
2023/02/02 06:43:30;;;;;;;5.07;4.77;;;;;;;-0.84;100.00;97313.63;5072088;28;20693;-66
2023/02/02 06:45:59;;;;;;;4.67;4.37;;;;;;;-0.91;100.00;97313.22;5050631;28;20220;-67
2023/02/02 06:48:27;;;;;;;4.53;4.23;;;;;;;-0.89;100.00;97313.94;5052186;28;22140;-67
2023/02/02 06:50:58;;;;;;;5.03;4.63;;;;;;;-0.91;100.00;97316.69;5024184;28;20669;-67
2023/02/02 06:53:25;;;;;;;4.23;4.00;;;;;;;-0.85;100.00;97306.78;5050918;28;20292;-65
2023/02/02 06:55:54;;;;;;;4.23;3.93;;;;;;;-0.83;100.00;97310.91;5064178;28;20230;-67
2023/02/02 06:58:22;;;;;;;4.40;4.07;;;;;;;-0.72;100.00;97317.97;5069544;28;20234;-68
2023/02/02 07:00:49;;;;;;;4.53;4.23;;;;;;;-0.69;100.00;97322.94;5062489;28;20298;-67
2023/02/02 07:03:20;;;;;;;4.63;4.33;;;;;;;-0.84;100.00;97318.84;5056528;28;20202;-67
2023/02/02 07:05:48;;;;;;;4.40;4.10;;;;;;;-0.83;100.00;97323.09;5002460;28;20411;-63
2023/02/02 07:08:15;;;;;;;3.83;3.63;;;;;;;-0.77;100.00;97325.25;5071859;28;20221;-67
2023/02/02 07:10:43;;;;;;;4.23;3.93;;;;;;;-0.72;100.00;97325.75;5056983;28;20334;-66
2023/02/02 07:13:31;;;;;;;5.80;5.40;;;;;;;-0.71;100.00;97330.03;5075885;28;20203;-66
2023/02/02 07:15:59;;;;;;;6.80;6.20;;;;;;;-0.62;100.00;97334.56;5065704;28;20391;-68
2023/02/02 07:18:28;;;;;;;6.43;5.93;;;;;;;-0.65;100.00;97336.56;5049736;28;20251;-66
2023/02/02 07:20:58;;;;;;;5.93;5.43;;;;;;;-0.59;100.00;97318.72;5047353;28;20209;-65
2023/02/02 07:23:26;;;;;;;4.90;4.60;;;;;;;-0.73;100.00;97326.69;5026782;28;20636;-66
2023/02/02 07:26:00;;;;;;;5.50;5.10;;;;;;;-0.69;100.00;97328.16;5045640;28;20540;-66
2023/02/02 07:28:28;;;;;;;4.93;4.53;;;;;;;-0.65;100.00;97326.16;5067213;28;20283;-67
2023/02/02 07:30:56;;;;;;;5.17;4.77;;;;;;;-0.69;100.00;97333.34;5064793;28;20220;-67
2023/02/02 07:33:24;;;;;;;4.20;3.90;;;;;;;-0.56;100.00;97337.69;5045847;28;20213;-64
2023/02/02 07:35:53;;;;;;;5.23;4.93;;;;;;;-0.48;100.00;97332.75;5049373;28;20457;-67
2023/02/02 07:38:21;;;;;;;4.83;4.53;;;;;;;-0.43;100.00;97333.25;5015501;28;20213;-66
2023/02/02 07:40:48;;;;;;;4.97;4.67;;;;;;;-0.48;100.00;97330.97;5047576;28;20218;-64
2023/02/02 07:43:18;;;;;;;4.33;4.03;;;;;;;-0.67;100.00;97334.06;5062998;28;20599;-66
2023/02/02 07:45:45;;;;;;;3.93;3.73;;;;;;;-0.50;100.00;97334.66;5064014;28;20561;-65
2023/02/02 07:48:13;;;;;;;5.10;4.60;;;;;;;-0.56;100.00;97337.69;5043562;28;20538;-64
2023/02/02 07:50:41;;;;;;;4.40;4.10;;;;;;;-0.56;100.00;97346.31;5057944;28;20226;-68
2023/02/02 07:53:10;;;;;;;4.40;4.10;;;;;;;-0.53;100.00;97342.69;5064944;28;20248;-66
2023/02/02 07:55:38;;;;;;;4.33;4.03;;;;;;;-0.55;100.00;97339.34;5017021;28;20244;-65
2023/02/02 07:58:06;;;;;;;3.47;3.27;;;;;;;-0.67;100.00;97349.69;5058050;28;20566;-66
2023/02/02 08:00:34;;;;;;;3.27;3.10;;;;;;;-0.59;100.00;97347.34;5063619;28;20226;-64
2023/02/02 08:03:02;;;;;;;3.27;3.07;;;;;;;-0.50;100.00;97352.88;5046154;28;21091;-66
2023/02/02 08:05:30;;;;;;;2.67;2.57;;;;;;;-0.51;100.00;97346.00;5066554;28;20203;-63
2023/02/02 08:07:58;;;;;;;2.83;2.73;;;;;;;-0.38;100.00;97351.97;5047509;28;20297;-65
2023/02/02 08:10:27;;;;;;;3.73;3.53;;;;;;;-0.51;100.00;97346.00;5025508;28;20234;-66
2023/02/02 08:12:55;;;;;;;4.20;3.80;;;;;;;-0.42;100.00;97350.53;5054376;28;20502;-61
2023/02/02 08:15:22;;;;;;;3.90;3.70;;;;;;;-0.47;100.00;97353.47;5067049;28;20745;-65
2023/02/02 08:17:51;;;;;;;3.40;3.20;;;;;;;-0.45;100.00;97353.38;5074037;28;20202;-64
2023/02/02 08:20:19;;;;;;;3.10;3.00;;;;;;;-0.46;100.00;97360.31;5050313;28;20227;-65
2023/02/02 08:22:47;;;;;;;3.50;3.30;;;;;;;-0.40;100.00;97361.66;5046717;28;20199;-65
2023/02/02 08:25:14;;;;;;;3.50;3.30;;;;;;;-0.30;100.00;97364.44;5070752;28;20229;-63
2023/02/02 08:27:44;;;;;;;2.73;2.63;;;;;;;-0.21;100.00;97358.56;5013735;28;20210;-65
2023/02/02 08:30:12;;;;;;;2.93;2.70;;;;;;;-0.14;100.00;97366.78;5070455;28;20305;-64
2023/02/02 08:32:40;;;;;;;1.80;1.80;;;;;;;-0.08;100.00;97368.94;5064235;28;20322;-64
2023/02/02 08:35:08;;;;;;;1.97;1.87;;;;;;;0.03;100.00;97372.50;5049757;28;20280;-65
2023/02/02 08:37:36;;;;;;;2.20;2.10;;;;;;;0.02;100.00;97373.44;5065662;28;20254;-64
2023/02/02 08:40:04;;;;;;;1.53;1.53;;;;;;;0.06;100.00;97372.28;5053077;28;20695;-64
2023/02/02 08:42:32;;;;;;;1.50;1.40;;;;;;;0.14;100.00;97380.34;5023749;28;20266;-64
2023/02/02 08:45:03;;;;;;;2.23;1.83;;;;;;;0.17;100.00;97377.50;5049878;28;20366;-64
2023/02/02 08:47:51;;;;;;;1.90;1.80;;;;;;;0.08;100.00;97358.22;5056533;28;20191;-65
2023/02/02 08:50:37;;;;;;;1.90;1.80;;;;;;;0.27;100.00;97375.06;5052041;28;20258;-65
2023/02/02 08:53:04;;;;;;;2.50;2.30;;;;;;;0.33;100.00;97377.22;5064362;28;20307;-66
2023/02/02 08:55:32;;;;;;;1.93;1.83;;;;;;;0.42;100.00;97373.09;5050545;28;20217;-65
2023/02/02 08:58:00;;;;;;;2.00;1.80;;;;;;;0.41;100.00;97382.69;5027172;28;20493;-65
2023/02/02 09:00:29;;;;;;;1.80;1.70;;;;;;;0.54;100.00;97384.38;5047908;28;20241;-66
2023/02/02 09:02:56;;;;;;;1.80;1.80;;;;;;;0.28;100.00;97380.19;5061010;28;20311;-65
2023/02/02 09:05:24;;;;;;;1.77;1.67;;;;;;;0.19;100.00;97382.63;5045247;28;20316;-64
2023/02/02 09:07:52;;;;;;;1.60;1.60;;;;;;;0.07;100.00;97379.16;5064944;28;20455;-63
2023/02/02 09:10:20;;;;;;;1.37;1.37;;;;;;;0.06;100.00;97385.31;5049747;28;20225;-66
2023/02/02 09:12:47;;;;;;;1.70;1.60;;;;;;;0.20;100.00;97382.53;5020374;28;20206;-64
2023/02/02 09:15:15;;;;;;;1.30;1.30;;;;;;;0.19;100.00;97385.22;5052219;28;20225;-65
2023/02/02 09:17:44;;;;;;;1.77;1.30;;;;;;;0.49;100.00;97376.88;5065755;28;20670;-64
2023/02/02 09:20:12;;;;;;;1.40;1.40;;;;;;;0.60;100.00;97386.53;5073500;28;20857;-64
2023/02/02 09:22:40;;;;;;;3.07;2.87;;;;;;;0.56;100.00;97382.47;5045833;28;20210;-65
2023/02/02 09:25:08;;;;;;;4.40;4.13;;;;;;;0.51;100.00;97382.00;5069786;28;20200;-65
2023/02/02 09:27:38;;;;;;;4.47;4.17;;;;;;;0.59;100.00;97382.25;5028485;28;20209;-64
2023/02/02 09:30:07;;;;;;;6.70;6.20;;;;;;;0.53;100.00;97390.53;5040164;28;23244;-64
2023/02/02 09:32:34;;;;;;;6.63;6.13;;;;;;;0.66;100.00;97385.22;5064101;28;20689;-65
2023/02/02 09:35:04;;;;;;;8.17;7.47;;;;;;;0.72;100.00;97389.97;5071175;28;20283;-63
2023/02/02 09:37:33;;;;;;;8.10;7.30;;;;;;;0.49;100.00;97397.75;5042235;28;20276;-65
2023/02/02 09:40:01;;;;;;;7.63;7.03;;;;;;;0.29;100.00;97391.41;5071743;28;20218;-65
2023/02/02 09:42:44;;;;;;;6.30;5.90;;;;;;;0.42;100.00;97393.94;5047722;28;20206;-65
2023/02/02 09:45:18;;;;;;;5.60;5.20;;;;;;;0.21;100.00;97394.63;5059420;28;20197;-66
2023/02/02 09:47:54;;;;;;;6.00;5.60;;;;;;;0.07;100.00;97400.00;5066707;28;20198;-65
2023/02/02 09:50:32;;;;;;;5.03;4.73;;;;;;;-0.06;100.00;97410.47;5071178;28;20712;-62
2023/02/02 09:53:02;;;;;;;4.70;4.40;;;;;;;-0.10;100.00;97403.81;5046084;28;21017;-66
2023/02/02 09:55:34;;;;;;;4.13;3.90;;;;;;;-0.11;100.00;97408.22;5070842;28;20208;-64
2023/02/02 09:58:08;;;;;;;3.97;3.77;;;;;;;0.07;100.00;97411.25;5017481;28;20214;-65
2023/02/02 10:00:39;;;;;;;3.50;3.30;;;;;;;0.05;100.00;97397.50;5049294;28;20225;-63
2023/02/02 10:03:10;;;;;;;2.50;2.40;;;;;;;0.22;100.00;97409.31;5070682;28;20293;-64
2023/02/02 10:05:46;;;;;;;3.80;3.50;;;;;;;0.22;100.00;97398.03;5065326;28;20226;-67
2023/02/02 10:08:20;;;;;;;4.43;4.13;;;;;;;0.27;100.00;97407.19;5047135;28;20201;-65
2023/02/02 10:11:04;;;;;;;4.57;4.27;;;;;;;0.09;100.00;97413.75;5067893;28;20225;-66
2023/02/02 10:13:36;;;;;;;4.33;4.00;;;;;;;0.03;100.00;97408.97;5056939;28;20250;-65
2023/02/02 10:16:07;;;;;;;4.37;4.13;;;;;;;0.23;100.00;97408.38;5033421;28;20649;-66
2023/02/02 10:18:39;;;;;;;5.50;5.10;;;;;;;0.26;100.00;97412.50;5072189;28;20194;-65
2023/02/02 10:21:11;;;;;;;5.07;4.67;;;;;;;0.40;100.00;97414.09;5072826;28;20775;-65
2023/02/02 10:23:43;;;;;;;4.40;4.10;;;;;;;0.37;100.00;97409.09;5058653;28;20308;-65
2023/02/02 10:26:16;;;;;;;4.63;4.33;;;;;;;0.16;100.00;97408.91;5074884;28;20228;-65
2023/02/02 10:28:54;;;;;;;4.40;4.10;;;;;;;0.19;100.00;97403.47;5069242;28;20213;-65
2023/02/02 10:31:31;;;;;;;3.93;3.60;;;;;;;-0.01;100.00;97406.59;5012430;28;20748;-65
2023/02/02 10:34:04;;;;;;;3.67;3.47;;;;;;;0.10;100.00;97402.38;5072757;28;20411;-66
2023/02/02 10:36:44;;;;;;;3.60;3.40;;;;;;;-0.09;100.00;97408.94;5074817;28;20210;-65
2023/02/02 10:39:20;;;;;;;4.30;4.00;;;;;;;-0.04;100.00;97399.00;5069549;28;20213;-65
2023/02/02 10:41:54;;;;;;;3.67;3.47;;;;;;;-0.11;100.00;97405.63;5051963;28;20228;-64
2023/02/02 10:44:32;;;;;;;3.93;3.73;;;;;;;-0.03;100.00;97403.28;5072429;28;20216;-66
2023/02/02 10:47:03;;;;;;;4.00;3.70;;;;;;;-0.07;100.00;97404.44;5023691;28;20856;-66
2023/02/02 10:49:33;;;;;;;4.37;4.07;;;;;;;-0.10;100.00;97383.84;5071905;28;20225;-65
2023/02/02 10:52:07;;;;;;;4.13;3.90;;;;;;;0.02;100.00;97404.72;5074947;28;20198;-63
2023/02/02 10:54:44;;;;;;;4.17;3.87;;;;;;;-0.02;100.00;97401.50;5075631;28;20208;-65
2023/02/02 10:57:32;;;;;;;4.23;4.00;;;;;;;0.25;100.00;97405.63;5052414;28;20217;-65
2023/02/02 11:00:05;;;;;;;4.40;4.20;;;;;;;0.05;100.00;97400.13;5024176;28;20992;-66
2023/02/02 11:02:33;;;;;;;4.27;4.03;;;;;;;0.25;100.00;97392.59;5058256;28;20321;-65
2023/02/02 11:07:47;;;;;;;4.17;3.87;;;;;;;0.26;100.00;97391.66;5073223;28;20221;-65
2023/02/02 11:10:15;;;;;;;3.30;3.10;;;;;;;0.26;100.00;97389.88;5075553;28;20237;-66
2023/02/02 11:12:51;;;;;;;4.10;3.90;;;;;;;0.27;100.00;97391.56;5050506;28;20206;-65
2023/02/02 11:15:24;;;;;;;3.60;3.40;;;;;;;0.10;100.00;97398.00;5072208;28;20755;-65
2023/02/02 11:17:53;;;;;;;3.40;3.20;;;;;;;0.20;100.00;97395.56;5008490;28;20410;-66
2023/02/02 11:20:31;;;;;;;4.80;4.40;;;;;;;0.26;100.00;97395.09;5077627;28;20242;-64
2023/02/02 11:23:02;;;;;;;3.57;3.37;;;;;;;0.15;100.00;97392.44;5067878;28;20288;-66
2023/02/02 11:25:32;;;;;;;3.10;3.00;;;;;;;-0.03;100.00;97386.81;5073408;28;20910;-64
2023/02/02 11:28:02;;;;;;;2.90;2.80;;;;;;;-0.05;100.00;97384.31;5054366;28;20493;-65
2023/02/02 11:30:33;;;;;;;2.73;2.63;;;;;;;-0.05;100.00;97383.47;5063232;28;20309;-66
2023/02/02 11:33:21;;;;;;;2.80;2.70;;;;;;;-0.09;100.00;97388.09;5027680;28;20313;-68
2023/02/02 11:35:56;;;;;;;2.97;2.77;;;;;;;0.12;100.00;97379.63;5064794;28;20312;-68
2023/02/02 11:38:26;;;;;;;3.77;3.53;;;;;;;0.53;100.00;97393.16;5062811;28;20490;-64
2023/02/02 11:40:56;;;;;;;3.30;3.10;;;;;;;0.51;100.00;97389.81;5069488;28;20430;-67
2023/02/02 11:43:27;;;;;;;3.43;3.23;;;;;;;0.33;100.00;97394.63;5047008;28;20445;-65
2023/02/02 11:45:57;;;;;;;3.30;3.20;;;;;;;0.64;100.00;97387.13;5063143;28;20905;-66
2023/02/02 11:48:32;;;;;;;4.20;3.90;;;;;;;0.79;100.00;97391.16;5011747;28;20643;-67
2023/02/02 11:51:00;;;;;;;4.27;3.97;;;;;;;0.67;100.00;97387.72;5070926;28;20414;-63